Portada
METAR-TAF:

METAR-TAF

Aeropuertos :

Ohrid, Macedonia

latitud: 41-07N, longitud: 020-48E, altitud: 760 m

Observación

El informe se hizo hace 34 minutos, a las 02:20 UTC
Viento 2 kt con dirección variable
Temperatura 19°C
Humedad 73%
Presión 1015 hPa
Visibilidad 10 km o más
Escasas nubes a una altura de 3500 ft

METAR: LWOH 230220Z VRB02KT 9999 FEW035 19/14 Q1015

Hora: 04:54 (02:54 UTC)

Pronóstico

El informe se hizo hace 24 minutos, a las 02:30 UTC
Pronóstico válido del 23 a las 03 UTC al 24 a las 03 UTC
Viento 2 kt con dirección variable
Visibilidad 10 km o más
Escasas nubes a una altura de 4000 ft

TAF: LWOH 230230Z 2303/2403 VRB02KT 9999 FEW040

Observaciones y pronósticos meteorológicos de más de 4000 aeropuertos (mensajes METAR y TAF).

Los puntos amarillos y rojos representan las estaciones disponibles.

Ponga el ratón en el punto deseado para ver el nombre de la estación.

Haga clic para ver las observaciones y los pronósticos meteorológicos.

Para cambiar el mapa : haga clic en los botones verdes con una cruz de color negro para hacer un zoom, en el botón verde con un guión para alejar o en las flechas verdes para mapas adyacentes.


METAR-TAF: